createdAt,value
2018-02-20T00:02:05.949Z,-1.70
2018-02-20T00:04:32.168Z,-1.70
2018-02-20T00:06:59.108Z,-1.70
2018-02-20T00:09:26.068Z,-1.70
2018-02-20T00:11:52.996Z,-1.70
2018-02-20T00:14:19.957Z,-1.70
2018-02-20T00:16:46.892Z,-1.80
2018-02-20T00:19:13.891Z,-1.70
2018-02-20T00:21:40.463Z,-1.80
2018-02-20T00:24:06.685Z,-1.70
2018-02-20T00:26:32.891Z,-1.80
2018-02-20T00:28:59.125Z,-1.80
2018-02-20T00:31:25.308Z,-1.80
2018-02-20T00:33:51.524Z,-1.80
2018-02-20T00:36:18.512Z,-1.80
2018-02-20T00:38:44.732Z,-1.80
2018-02-20T00:41:10.920Z,-1.80
2018-02-20T00:43:37.888Z,-1.80
2018-02-20T00:46:04.072Z,-1.80
2018-02-20T00:48:31.042Z,-1.80
2018-02-20T00:50:57.975Z,-1.80
2018-02-20T00:53:24.197Z,-1.80
2018-02-20T00:55:50.844Z,-1.80
2018-02-20T00:58:17.069Z,-1.80
2018-02-20T01:00:43.528Z,-1.80
2018-02-20T01:03:10.485Z,-1.80
2018-02-20T01:05:36.671Z,-1.90
2018-02-20T01:08:03.635Z,-1.80
2018-02-20T01:10:29.853Z,-1.90
2018-02-20T01:12:56.068Z,-1.80
2018-02-20T01:15:22.251Z,-1.80
2018-02-20T01:17:48.495Z,-1.80
2018-02-20T01:20:14.683Z,-1.90
2018-02-20T01:22:41.608Z,-1.90
2018-02-20T01:25:07.936Z,-1.90
2018-02-20T01:27:34.156Z,-1.90
2018-02-20T01:30:00.344Z,-1.90
2018-02-20T01:32:26.537Z,-1.90
2018-02-20T01:34:52.753Z,-1.90
2018-02-20T01:37:19.410Z,-1.90
2018-02-20T01:39:46.368Z,-2.00
2018-02-20T01:42:13.302Z,-2.00
2018-02-20T01:44:40.270Z,-2.00
2018-02-20T01:47:06.455Z,-2.00
2018-02-20T01:49:32.677Z,-2.00
2018-02-20T01:51:58.877Z,-1.90
2018-02-20T01:54:25.105Z,-1.90
2018-02-20T01:56:51.294Z,-1.90
2018-02-20T01:59:18.259Z,-1.90
2018-02-20T02:01:44.456Z,-1.90
2018-02-20T02:04:10.864Z,-1.90
2018-02-20T02:06:37.073Z,-1.80
2018-02-20T02:09:03.319Z,-1.80
2018-02-20T02:11:29.546Z,-1.80
2018-02-20T02:13:56.060Z,-1.80
2018-02-20T02:16:22.834Z,-1.80
2018-02-20T02:18:49.834Z,-1.80
2018-02-20T02:21:16.143Z,-1.80
2018-02-20T02:23:42.363Z,-1.80
2018-02-20T02:26:09.320Z,-1.90
2018-02-20T02:28:35.540Z,-1.90
2018-02-20T02:31:01.824Z,-1.90
2018-02-20T02:33:28.013Z,-2.00
2018-02-20T02:35:54.968Z,-2.20
2018-02-20T02:38:21.169Z,-2.20
2018-02-20T02:40:47.396Z,-2.20
2018-02-20T02:43:14.328Z,-2.30
2018-02-20T02:45:40.549Z,-2.30
2018-02-20T02:48:06.746Z,-2.40
2018-02-20T02:50:32.967Z,-2.40
2018-02-20T02:52:59.160Z,-2.50
2018-02-20T02:55:25.380Z,-2.50
2018-02-20T02:57:51.572Z,-2.60
2018-02-20T03:00:17.802Z,-2.60
2018-02-20T03:02:43.994Z,-2.60
2018-02-20T03:05:10.952Z,-2.70
2018-02-20T03:07:37.144Z,-2.70
2018-02-20T03:10:03.448Z,-2.60
2018-02-20T03:12:29.635Z,-2.70
2018-02-20T03:14:56.610Z,-2.70
2018-02-20T03:17:22.803Z,-2.70
2018-02-20T03:19:49.796Z,-2.80
2018-02-20T03:22:15.988Z,-2.80
2018-02-20T03:24:42.216Z,-2.80
2018-02-20T03:27:08.403Z,-2.90
2018-02-20T03:29:34.624Z,-2.90
2018-02-20T03:32:00.808Z,-3.00
2018-02-20T03:34:27.028Z,-3.00
2018-02-20T03:36:53.956Z,-3.20
2018-02-20T03:39:20.921Z,-3.20
2018-02-20T03:41:47.118Z,-3.20
2018-02-20T03:44:14.060Z,-3.20
2018-02-20T03:46:40.288Z,-3.20
2018-02-20T03:49:06.479Z,-3.20
2018-02-20T03:51:32.696Z,-3.30
2018-02-20T03:53:58.888Z,-3.40
2018-02-20T03:56:25.114Z,-3.40
2018-02-20T03:58:51.304Z,-3.40
2018-02-20T04:01:17.524Z,-3.40
2018-02-20T04:03:43.780Z,-3.40
2018-02-20T04:06:10.001Z,-3.30
2018-02-20T04:08:36.205Z,-3.30
2018-02-20T04:11:02.432Z,-3.20
2018-02-20T04:13:28.621Z,-3.20
2018-02-20T04:15:54.925Z,-3.20
2018-02-20T04:18:21.536Z,-3.20
2018-02-20T04:20:47.766Z,-3.10
2018-02-20T04:23:14.057Z,-3.10
2018-02-20T04:25:41.016Z,-3.10
2018-02-20T04:28:07.945Z,-3.10
2018-02-20T04:30:34.196Z,-3.10
2018-02-20T04:33:00.380Z,-3.00
2018-02-20T04:35:26.796Z,-3.00
2018-02-20T04:37:52.990Z,-3.00
2018-02-20T04:40:19.176Z,-2.90
2018-02-20T04:42:45.409Z,-3.00
2018-02-20T04:45:11.600Z,-3.00
2018-02-20T04:47:37.811Z,-3.00
2018-02-20T04:50:04.001Z,-2.90
2018-02-20T04:52:30.224Z,-3.00
2018-02-20T04:54:56.420Z,-3.00
2018-02-20T04:57:22.636Z,-3.00
2018-02-20T04:59:49.700Z,-3.00
2018-02-20T05:02:15.924Z,-2.90
2018-02-20T05:04:42.131Z,-2.90
2018-02-20T05:07:08.399Z,-3.00
2018-02-20T05:09:34.588Z,-3.00
2018-02-20T05:12:00.811Z,-3.00
2018-02-20T05:14:27.000Z,-3.10
2018-02-20T05:16:53.512Z,-3.20
2018-02-20T05:19:19.762Z,-3.20
2018-02-20T05:21:45.951Z,-3.20
2018-02-20T05:24:12.168Z,-3.20
2018-02-20T05:26:39.023Z,-3.20
2018-02-20T05:29:05.217Z,-3.20
2018-02-20T05:31:32.152Z,-3.20
2018-02-20T05:33:59.116Z,-3.20
2018-02-20T05:36:26.060Z,-3.20
2018-02-20T05:38:53.024Z,-3.20
2018-02-20T05:41:19.221Z,-3.20
2018-02-20T05:43:46.197Z,-3.20
2018-02-20T05:46:12.387Z,-3.30
2018-02-20T05:48:38.607Z,-3.30
2018-02-20T05:51:04.801Z,-3.30
2018-02-20T05:53:31.057Z,-3.30
2018-02-20T05:55:57.256Z,-3.30
2018-02-20T05:58:23.475Z,-3.30
2018-02-20T06:00:49.665Z,-3.40
2018-02-20T06:03:15.896Z,-3.40
2018-02-20T06:05:42.828Z,-3.40
2018-02-20T06:08:09.062Z,-3.50
2018-02-20T06:10:35.260Z,-3.40
2018-02-20T06:13:01.472Z,-3.40
2018-02-20T06:15:27.691Z,-3.40
2018-02-20T06:17:53.896Z,-3.50
2018-02-20T06:20:20.896Z,-3.40
2018-02-20T06:22:47.088Z,-3.40
2018-02-20T06:25:13.308Z,-3.40
2018-02-20T06:27:40.229Z,-3.30
2018-02-20T06:30:06.448Z,-3.30
2018-02-20T06:32:32.631Z,-3.20
2018-02-20T06:34:58.855Z,-3.20
2018-02-20T06:37:25.052Z,-3.10
2018-02-20T06:39:52.036Z,-2.90
2018-02-20T06:42:18.228Z,-2.90
2018-02-20T06:44:45.156Z,-2.60
2018-02-20T06:47:11.372Z,-2.60
2018-02-20T06:49:37.559Z,-2.40
2018-02-20T06:52:03.775Z,-2.30
2018-02-20T06:54:30.712Z,-2.00
2018-02-20T06:56:57.668Z,-1.90
2018-02-20T06:59:23.869Z,-1.90
2018-02-20T07:01:50.088Z,-1.70
2018-02-20T07:04:16.275Z,-1.60
2018-02-20T07:06:42.556Z,-1.50
2018-02-20T07:09:08.740Z,-1.30
2018-02-20T07:11:34.961Z,-1.10
2018-02-20T07:14:01.156Z,-1.00
2018-02-20T07:16:28.140Z,-0.80
2018-02-20T07:18:54.360Z,-0.80
2018-02-20T07:21:20.576Z,-0.60
2018-02-20T07:23:46.764Z,-0.20
2018-02-20T07:26:12.980Z,0.40
2018-02-20T07:28:39.167Z,1.00
2018-02-20T07:31:05.380Z,1.60
2018-02-20T07:33:32.313Z,2.60
2018-02-20T07:35:59.252Z,2.80
2018-02-20T07:38:25.514Z,2.70
2018-02-20T07:40:52.457Z,2.70
2018-02-20T07:43:18.649Z,2.70
2018-02-20T07:45:44.868Z,3.00
2018-02-20T07:48:11.060Z,3.40
2018-02-20T07:50:37.309Z,4.00
2018-02-20T07:53:03.516Z,4.80
2018-02-20T07:55:29.712Z,5.30
2018-02-20T07:57:56.671Z,4.60
2018-02-20T08:00:22.884Z,4.60
2018-02-20T08:02:49.840Z,4.80
2018-02-20T08:05:16.769Z,4.50
2018-02-20T08:07:42.988Z,4.50
2018-02-20T08:10:09.189Z,3.80
2018-02-20T08:12:35.480Z,4.00
2018-02-20T08:15:01.672Z,4.60
2018-02-20T08:17:28.685Z,4.70
2018-02-20T08:19:54.873Z,4.70
2018-02-20T08:22:21.827Z,5.80
2018-02-20T08:24:48.020Z,5.70
2018-02-20T08:27:14.245Z,6.60
2018-02-20T08:29:40.495Z,7.10
2018-02-20T08:32:06.692Z,7.40
2018-02-20T08:34:32.880Z,7.50
2018-02-20T08:36:59.092Z,7.90
2018-02-20T08:39:26.021Z,9.80
2018-02-20T08:41:52.276Z,9.80
2018-02-20T08:44:19.204Z,10.70
2018-02-20T08:46:46.133Z,8.70
2018-02-20T08:49:12.527Z,8.70
2018-02-20T08:51:38.860Z,7.60
2018-02-20T08:54:05.114Z,5.70
2018-02-20T08:56:31.296Z,4.30
2018-02-20T08:58:57.516Z,3.90
2018-02-20T09:01:24.440Z,2.20
2018-02-20T09:03:50.668Z,2.10
2018-02-20T09:06:16.865Z,1.80
2018-02-20T09:08:43.085Z,1.40
2018-02-20T09:11:09.268Z,1.40
2018-02-20T09:13:36.288Z,1.90
2018-02-20T09:16:02.476Z,1.90
2018-02-20T09:18:28.692Z,1.90
2018-02-20T09:20:54.914Z,1.90
2018-02-20T09:23:21.135Z,1.70
2018-02-20T09:25:48.072Z,1.30
2018-02-20T09:28:15.033Z,1.30
2018-02-20T09:30:41.956Z,1.40
2018-02-20T09:33:08.927Z,1.50
2018-02-20T09:35:35.125Z,1.50
2018-02-20T09:38:01.372Z,1.50
2018-02-20T09:40:28.300Z,1.00
2018-02-20T09:42:54.543Z,1.00
2018-02-20T09:45:21.467Z,0.30
2018-02-20T09:47:47.663Z,0.20
2018-02-20T09:50:13.953Z,0.00
2018-02-20T09:52:40.175Z,0.10
2018-02-20T09:55:07.137Z,0.40
2018-02-20T09:57:33.384Z,0.40
2018-02-20T09:59:59.597Z,0.40
2018-02-20T10:02:26.524Z,0.60
2018-02-20T10:04:53.477Z,0.70
2018-02-20T10:07:20.431Z,0.60
2018-02-20T10:09:47.392Z,0.50
2018-02-20T10:12:13.609Z,0.50
2018-02-20T10:14:40.538Z,0.60
2018-02-20T10:17:07.495Z,0.60
2018-02-20T10:19:34.512Z,0.80
2018-02-20T10:22:00.728Z,0.80
2018-02-20T10:24:26.924Z,1.10
2018-02-20T10:26:53.141Z,1.40
2018-02-20T10:29:19.336Z,1.60
2018-02-20T10:31:45.548Z,1.80
2018-02-20T10:34:11.749Z,2.00
2018-02-20T10:36:37.976Z,2.10
2018-02-20T10:39:04.212Z,2.20
2018-02-20T10:41:30.404Z,2.20
2018-02-20T10:43:57.352Z,2.10
2018-02-20T10:46:23.548Z,2.10
2018-02-20T10:48:49.764Z,1.80
2018-02-20T10:51:15.963Z,1.40
2018-02-20T10:53:42.179Z,1.00
2018-02-20T10:56:08.438Z,1.00
2018-02-20T10:58:34.656Z,1.10
2018-02-20T11:01:00.848Z,1.30
2018-02-20T11:03:27.807Z,1.10
2018-02-20T11:05:54.064Z,1.10
2018-02-20T11:08:20.314Z,1.30
2018-02-20T11:10:46.509Z,1.40
2018-02-20T11:13:12.756Z,1.40
2018-02-20T11:15:38.945Z,1.50
2018-02-20T11:18:05.910Z,1.40
2018-02-20T11:20:32.133Z,1.40
2018-02-20T11:22:58.355Z,1.50
2018-02-20T11:25:24.540Z,1.20
2018-02-20T11:27:50.752Z,1.30
2018-02-20T11:30:16.936Z,1.50
2018-02-20T11:32:43.159Z,1.50
2018-02-20T11:35:10.088Z,1.30
2018-02-20T11:37:36.308Z,1.30
2018-02-20T11:40:02.508Z,1.20
2018-02-20T11:42:28.725Z,1.20
2018-02-20T11:44:55.155Z,1.30
2018-02-20T11:47:21.376Z,1.30
2018-02-20T11:49:47.556Z,1.20
2018-02-20T11:52:13.773Z,1.00
2018-02-20T11:54:39.961Z,1.00
2018-02-20T11:57:06.194Z,1.00
2018-02-20T11:59:32.454Z,1.00
2018-02-20T12:01:58.680Z,1.00
2018-02-20T12:04:24.877Z,1.30
2018-02-20T12:06:51.096Z,1.50
2018-02-20T12:09:17.297Z,1.50
2018-02-20T12:11:43.780Z,1.40
2018-02-20T12:14:10.001Z,1.40
2018-02-20T12:16:36.191Z,1.40
2018-02-20T12:19:03.204Z,1.40
2018-02-20T12:21:29.386Z,1.40
2018-02-20T12:23:56.344Z,1.30
2018-02-20T12:26:22.545Z,1.30
2018-02-20T12:28:49.500Z,1.40
2018-02-20T12:31:16.424Z,1.40
2018-02-20T12:33:42.635Z,1.40
2018-02-20T12:36:08.820Z,1.70
2018-02-20T12:38:35.000Z,1.90
2018-02-20T12:41:01.217Z,2.00
2018-02-20T12:43:27.404Z,2.50
2018-02-20T12:45:53.620Z,3.80
2018-02-20T12:48:20.553Z,5.90
2018-02-20T12:50:47.517Z,7.40
2018-02-20T12:53:13.707Z,7.40
2018-02-20T12:55:39.930Z,8.90
2018-02-20T12:58:06.129Z,9.20
2018-02-20T13:00:32.335Z,8.30
2018-02-20T13:02:58.537Z,7.80
2018-02-20T13:05:25.500Z,6.40
2018-02-20T13:07:51.721Z,6.40
2018-02-20T13:10:18.660Z,6.20
2018-02-20T13:12:44.903Z,6.10
2018-02-20T13:15:11.836Z,5.40
2018-02-20T13:17:38.796Z,4.60
2018-02-20T13:20:05.748Z,4.10
2018-02-20T13:22:31.968Z,4.10
2018-02-20T13:24:58.911Z,3.60
2018-02-20T13:27:25.883Z,3.50
2018-02-20T13:29:52.073Z,3.40
2018-02-20T13:32:18.264Z,3.40
2018-02-20T13:34:44.481Z,3.40
2018-02-20T13:37:10.663Z,3.30
2018-02-20T13:39:37.633Z,3.60
2018-02-20T13:42:03.823Z,3.60
2018-02-20T13:44:30.049Z,4.10
2018-02-20T13:46:56.238Z,4.20
2018-02-20T13:49:22.520Z,3.80
2018-02-20T13:51:49.452Z,3.40
2018-02-20T13:54:15.677Z,3.40
2018-02-20T13:56:41.883Z,3.30
2018-02-20T13:59:08.113Z,3.00
2018-02-20T14:01:34.300Z,2.70
2018-02-20T14:04:01.264Z,2.10
2018-02-20T14:06:27.456Z,2.10
2018-02-20T14:08:53.684Z,2.00
2018-02-20T14:11:19.876Z,1.90
2018-02-20T14:13:46.092Z,1.70
2018-02-20T14:16:12.324Z,1.70
2018-02-20T14:18:38.560Z,1.80
2018-02-20T14:21:04.836Z,1.70
2018-02-20T14:23:31.764Z,1.50
2018-02-20T14:25:57.980Z,1.50
2018-02-20T14:28:24.201Z,1.50
2018-02-20T14:30:50.394Z,1.60
2018-02-20T14:33:16.584Z,1.70
2018-02-20T14:35:42.800Z,1.80
2018-02-20T14:38:08.997Z,1.80
2018-02-20T14:40:35.213Z,1.70
2018-02-20T14:43:01.404Z,1.70
2018-02-20T14:45:27.621Z,1.70
2018-02-20T14:47:53.811Z,1.60
2018-02-20T14:50:20.024Z,1.60
2018-02-20T14:52:46.209Z,1.50
2018-02-20T14:55:12.433Z,1.50
2018-02-20T14:57:38.620Z,1.50
2018-02-20T15:00:04.840Z,1.50
2018-02-20T15:02:31.020Z,1.40
2018-02-20T15:04:57.316Z,1.40
2018-02-20T15:07:23.528Z,1.40
2018-02-20T15:09:49.714Z,1.40
2018-02-20T15:12:15.928Z,1.30
2018-02-20T15:14:42.116Z,1.30
2018-02-20T15:17:08.336Z,1.30
2018-02-20T15:19:34.559Z,1.30
2018-02-20T15:22:00.783Z,1.30
2018-02-20T15:24:27.708Z,1.20
2018-02-20T15:26:53.923Z,1.20
2018-02-20T15:29:20.117Z,1.20
2018-02-20T15:31:46.348Z,1.10
2018-02-20T15:34:12.544Z,1.10
2018-02-20T15:36:39.505Z,1.00
2018-02-20T15:39:05.698Z,1.00
2018-02-20T15:41:33.397Z,0.90
2018-02-20T15:43:59.588Z,0.90
2018-02-20T15:46:25.864Z,0.90
2018-02-20T15:48:52.060Z,0.80
2018-02-20T15:51:19.016Z,0.80
2018-02-20T15:53:45.940Z,0.80
2018-02-20T15:56:12.158Z,0.70
2018-02-20T15:58:38.404Z,0.80
2018-02-20T16:01:05.356Z,0.80
2018-02-20T16:03:32.289Z,0.70
2018-02-20T16:06:00.313Z,0.80
2018-02-20T16:08:26.538Z,0.70
2018-02-20T16:10:52.761Z,0.80
2018-02-20T16:13:18.957Z,0.80
2018-02-20T16:15:45.941Z,0.70
2018-02-20T16:18:12.141Z,0.70
2018-02-20T16:20:39.137Z,0.80
2018-02-20T16:23:05.320Z,0.70
2018-02-20T16:25:32.267Z,0.70
2018-02-20T16:27:59.228Z,0.70
2018-02-20T16:30:25.423Z,0.60
2018-02-20T16:32:52.416Z,0.60
2018-02-20T16:35:18.596Z,0.60
2018-02-20T16:37:44.820Z,0.60
2018-02-20T16:40:11.772Z,0.60
2018-02-20T16:42:38.411Z,0.50
2018-02-20T16:45:05.340Z,0.50
2018-02-20T16:47:31.541Z,0.50
2018-02-20T16:49:57.765Z,0.50
2018-02-20T16:52:23.972Z,0.50
2018-02-20T16:54:50.184Z,0.60
2018-02-20T16:57:17.116Z,0.50
2018-02-20T16:59:43.332Z,0.50
2018-02-20T17:02:09.590Z,0.50
2018-02-20T17:04:36.552Z,0.50
2018-02-20T17:07:03.004Z,0.50
2018-02-20T17:09:29.236Z,0.50
2018-02-20T17:11:55.444Z,0.60
2018-02-20T17:14:21.627Z,0.50
2018-02-20T17:16:48.588Z,0.60
2018-02-20T17:19:15.516Z,0.60
2018-02-20T17:21:41.805Z,0.60
2018-02-20T17:24:08.024Z,0.60
2018-02-20T17:26:34.245Z,0.50
2018-02-20T17:29:00.437Z,0.60
2018-02-20T17:31:26.658Z,0.50
2018-02-20T17:33:52.919Z,0.60
2018-02-20T17:36:19.873Z,0.60
2018-02-20T17:38:46.808Z,0.50
2018-02-20T17:41:13.776Z,0.60
2018-02-20T17:43:39.966Z,0.50
2018-02-20T17:46:06.190Z,0.50
2018-02-20T17:48:32.380Z,0.50
2018-02-20T17:50:58.604Z,0.50
2018-02-20T17:53:24.791Z,0.50
2018-02-20T17:55:51.820Z,0.50
2018-02-20T17:58:18.016Z,0.50
2018-02-20T18:00:44.253Z,0.50
2018-02-20T18:03:10.445Z,0.50
2018-02-20T18:05:37.008Z,0.50
2018-02-20T18:08:03.204Z,0.50
2018-02-20T18:10:30.165Z,0.50
2018-02-20T18:12:56.388Z,0.40
2018-02-20T18:15:22.600Z,0.50
2018-02-20T18:17:49.536Z,0.50
2018-02-20T18:20:15.785Z,0.50
2018-02-20T18:22:42.771Z,0.50
2018-02-20T18:25:08.961Z,0.50
2018-02-20T18:27:35.889Z,0.50
2018-02-20T18:30:02.857Z,0.50
2018-02-20T18:32:29.044Z,0.40
2018-02-20T18:34:55.321Z,0.40
2018-02-20T18:37:21.519Z,0.40
2018-02-20T18:39:47.740Z,0.40
2018-02-20T18:42:13.932Z,0.40
2018-02-20T18:44:40.212Z,0.40
2018-02-20T18:47:07.140Z,0.40
2018-02-20T18:49:33.385Z,0.40
2018-02-20T18:51:59.572Z,0.40
2018-02-20T18:54:25.792Z,0.30
2018-02-20T18:56:51.981Z,0.30
2018-02-20T18:59:18.941Z,0.20
2018-02-20T19:01:45.499Z,0.20
2018-02-20T19:04:11.721Z,0.10
2018-02-20T19:06:37.974Z,0.00
2018-02-20T19:09:04.235Z,-0.10
2018-02-20T19:11:30.474Z,-0.30
2018-02-20T19:13:57.431Z,-0.60
2018-02-20T19:16:24.364Z,-0.70
2018-02-20T19:18:51.323Z,-0.90
2018-02-20T19:21:18.284Z,-1.00
2018-02-20T19:23:44.568Z,-1.00
2018-02-20T19:26:10.775Z,-1.00
2018-02-20T19:28:37.000Z,-1.10
2018-02-20T19:31:03.228Z,-1.10
2018-02-20T19:33:29.461Z,-1.20
2018-02-20T19:35:55.683Z,-1.20
2018-02-20T19:38:21.868Z,-1.20
2018-02-20T19:40:48.840Z,-1.30
2018-02-20T19:43:15.037Z,-1.30
2018-02-20T19:45:41.996Z,-1.30
2018-02-20T19:48:08.924Z,-1.30
2018-02-20T19:50:35.149Z,-1.30
2018-02-20T19:53:01.337Z,-1.30
2018-02-20T19:55:27.556Z,-1.40
2018-02-20T19:57:53.784Z,-1.50
2018-02-20T20:00:20.003Z,-1.50
2018-02-20T20:02:46.252Z,-1.50
2018-02-20T20:05:12.473Z,-1.60
2018-02-20T20:07:38.669Z,-1.60
2018-02-20T20:10:05.632Z,-1.70
2018-02-20T20:12:31.819Z,-1.70
2018-02-20T20:14:58.159Z,-1.70
2018-02-20T20:17:24.357Z,-1.70
2018-02-20T20:19:50.550Z,-1.80
2018-02-20T20:22:16.808Z,-1.80
2018-02-20T20:24:43.005Z,-1.80
2018-02-20T20:27:09.217Z,-1.90
2018-02-20T20:29:36.147Z,-2.00
2018-02-20T20:32:02.373Z,-2.00
2018-02-20T20:34:30.052Z,-2.00
2018-02-20T20:36:57.016Z,-2.10
2018-02-20T20:39:23.200Z,-2.10
2018-02-20T20:41:49.412Z,-2.10
2018-02-20T20:44:16.544Z,-2.20
2018-02-20T20:46:42.760Z,-2.20
2018-02-20T20:49:08.957Z,-2.20
2018-02-20T20:51:35.922Z,-2.30
2018-02-20T20:54:02.858Z,-2.40
2018-02-20T20:56:29.821Z,-2.40
2018-02-20T20:58:56.004Z,-2.40
2018-02-20T21:01:22.252Z,-2.40
2018-02-20T21:03:49.184Z,-2.50
2018-02-20T21:06:15.363Z,-2.50
2018-02-20T21:08:41.584Z,-2.50
2018-02-20T21:11:07.764Z,-2.60
2018-02-20T21:13:33.981Z,-2.60
2018-02-20T21:16:00.173Z,-2.70
2018-02-20T21:18:26.396Z,-2.70
2018-02-20T21:20:52.673Z,-2.70
2018-02-20T21:23:18.884Z,-2.70
2018-02-20T21:25:45.077Z,-2.70
2018-02-20T21:28:11.296Z,-2.70
2018-02-20T21:30:38.232Z,-2.70
2018-02-20T21:33:05.192Z,-2.70
2018-02-20T21:35:32.128Z,-2.80
2018-02-20T21:37:59.092Z,-2.80
2018-02-20T21:40:25.288Z,-2.80
2018-02-20T21:42:51.504Z,-2.80
2018-02-20T21:45:17.701Z,-2.80
2018-02-20T21:47:44.288Z,-2.90
2018-02-20T21:50:10.479Z,-2.90
2018-02-20T21:52:36.697Z,-2.90
2018-02-20T21:55:02.950Z,-3.00
2018-02-20T21:57:29.160Z,-3.00
2018-02-20T21:59:55.420Z,-3.00
2018-02-20T22:02:21.652Z,-3.00
2018-02-20T22:04:48.581Z,-3.10
2018-02-20T22:07:14.792Z,-3.10
2018-02-20T22:09:40.972Z,-3.10
2018-02-20T22:12:07.936Z,-3.20
2018-02-20T22:14:34.124Z,-3.20
2018-02-20T22:17:01.829Z,-3.30
2018-02-20T22:19:28.020Z,-3.40
2018-02-20T22:21:54.273Z,-3.30
2018-02-20T22:24:21.207Z,-3.40
2018-02-20T22:26:47.433Z,-3.40
2018-02-20T22:29:13.625Z,-3.30
2018-02-20T22:31:39.849Z,-3.40
2018-02-20T22:34:06.040Z,-3.40
2018-02-20T22:36:33.028Z,-3.50
2018-02-20T22:38:59.229Z,-3.50
2018-02-20T22:41:32.349Z,-3.50
2018-02-20T22:43:58.573Z,-3.60
2018-02-20T22:46:24.772Z,-3.60
2018-02-20T22:48:51.000Z,-3.70
2018-02-20T22:51:17.194Z,-3.60
2018-02-20T22:53:43.416Z,-3.70
2018-02-20T22:56:09.603Z,-3.70
2018-02-20T22:58:35.815Z,-3.70
2018-02-20T23:01:02.001Z,-3.70
2018-02-20T23:03:28.962Z,-3.80
2018-02-20T23:05:55.153Z,-3.80
2018-02-20T23:08:21.372Z,-3.70
2018-02-20T23:10:47.564Z,-3.80
2018-02-20T23:13:14.524Z,-3.80
2018-02-20T23:15:40.724Z,-3.90
2018-02-20T23:18:06.940Z,-3.80
2018-02-20T23:20:33.155Z,-3.90
2018-02-20T23:22:59.384Z,-3.90
2018-02-20T23:25:25.637Z,-4.00
2018-02-20T23:27:51.837Z,-4.00
2018-02-20T23:30:18.066Z,-4.00
2018-02-20T23:32:44.281Z,-4.00
2018-02-20T23:35:10.482Z,-4.00
2018-02-20T23:37:36.683Z,-4.00
2018-02-20T23:40:03.644Z,-4.00
2018-02-20T23:42:30.572Z,-4.00
2018-02-20T23:44:56.788Z,-4.00
2018-02-20T23:47:23.719Z,-4.00
2018-02-20T23:49:49.940Z,-4.00
2018-02-20T23:52:16.129Z,-3.90
2018-02-20T23:54:43.106Z,-3.90
2018-02-20T23:57:09.288Z,-3.90
2018-02-20T23:59:36.479Z,-3.80
